Weather at Al Massira Airport

Public forecast

Using degrees Celsius for public forecast. Weather courtesy of forecast.io.

Current aviation weather report (METAR) for Al Massira Airport

2024/04/24 15:00 (retrieved 25 minutes ago)

GMAD 241500Z 25014KT 8000 NSC 26/15 Q1009 NOSIG

Aviation forecast (TAF) for Al Massira Airport

2024/04/24 12:18 (retrieved 3 hours ago)

TAF TAF GMAD 241100Z 2412/2518 28006KT 8000 NSC